createdAt,value
2018-12-26T00:00:37.471Z,6.90
2018-12-26T00:03:06.961Z,6.90
2018-12-26T00:05:36.161Z,7.00
2018-12-26T00:08:05.471Z,7.00
2018-12-26T00:10:34.639Z,6.90
2018-12-26T00:13:03.836Z,6.90
2018-12-26T00:15:33.107Z,6.90
2018-12-26T00:18:02.391Z,6.90
2018-12-26T00:20:31.588Z,6.90
2018-12-26T00:23:00.784Z,6.90
2018-12-26T00:25:29.971Z,6.90
2018-12-26T00:27:59.336Z,7.00
2018-12-26T00:30:28.603Z,7.00
2018-12-26T00:32:57.776Z,7.00
2018-12-26T00:35:27.094Z,7.00
2018-12-26T00:37:56.283Z,7.10
2018-12-26T00:40:25.487Z,7.20
2018-12-26T00:42:54.784Z,7.10
2018-12-26T00:45:23.941Z,7.10
2018-12-26T00:47:53.103Z,7.10
2018-12-26T00:50:22.286Z,7.00
2018-12-26T00:52:51.528Z,7.10
2018-12-26T00:55:20.684Z,7.10
2018-12-26T00:57:49.867Z,7.00
2018-12-26T01:00:19.132Z,7.00
2018-12-26T01:02:48.422Z,7.00
2018-12-26T01:05:17.735Z,7.00
2018-12-26T01:07:46.975Z,6.90
2018-12-26T01:10:16.147Z,6.90
2018-12-26T01:12:45.315Z,6.90
2018-12-26T01:15:14.565Z,6.90
2018-12-26T01:17:43.760Z,7.00
2018-12-26T01:20:13.119Z,6.80
2018-12-26T01:22:42.367Z,6.80
2018-12-26T01:25:11.555Z,6.90
2018-12-26T01:27:40.731Z,6.80
2018-12-26T01:30:09.924Z,6.80
2018-12-26T01:32:39.139Z,6.90
2018-12-26T01:35:08.387Z,6.90
2018-12-26T01:37:37.576Z,6.80
2018-12-26T01:40:07.041Z,6.80
2018-12-26T01:42:36.272Z,6.80
2018-12-26T01:45:05.726Z,6.70
2018-12-26T01:47:34.980Z,6.70
2018-12-26T01:50:04.327Z,6.70
2018-12-26T01:52:33.528Z,6.90
2018-12-26T01:55:02.684Z,6.90
2018-12-26T01:57:31.856Z,6.90
2018-12-26T02:00:01.049Z,6.80
2018-12-26T02:02:30.225Z,6.70
2018-12-26T02:04:59.501Z,6.60
2018-12-26T02:07:28.657Z,6.70
2018-12-26T02:09:57.854Z,6.60
2018-12-26T02:12:27.148Z,6.70
2018-12-26T02:14:56.307Z,6.60
2018-12-26T02:17:25.487Z,6.70
2018-12-26T02:19:54.664Z,6.70
2018-12-26T02:22:23.855Z,6.60
2018-12-26T02:24:53.116Z,6.60
2018-12-26T02:27:22.287Z,6.70
2018-12-26T02:29:51.438Z,6.70
2018-12-26T02:32:20.624Z,6.70
2018-12-26T02:34:49.795Z,6.70
2018-12-26T02:37:19.040Z,6.70
2018-12-26T02:39:48.259Z,6.70
2018-12-26T02:42:17.784Z,6.70
2018-12-26T02:44:46.981Z,6.70
2018-12-26T02:47:16.135Z,6.70
2018-12-26T02:49:45.411Z,6.70
2018-12-26T02:54:43.183Z,6.50
2018-12-26T02:57:12.580Z,6.50
2018-12-26T02:59:41.782Z,6.60
2018-12-26T03:02:10.961Z,6.60
2018-12-26T03:04:40.112Z,6.70
2018-12-26T03:07:09.336Z,6.60
2018-12-26T03:09:38.499Z,6.50
2018-12-26T03:12:07.696Z,6.40
2018-12-26T03:14:36.877Z,6.40
2018-12-26T03:17:06.028Z,6.60
2018-12-26T03:19:35.280Z,6.50
2018-12-26T03:22:04.435Z,6.60
2018-12-26T03:24:33.630Z,6.70
2018-12-26T03:27:02.868Z,6.60
2018-12-26T03:29:32.033Z,6.50
2018-12-26T03:32:01.222Z,6.50
2018-12-26T03:34:30.378Z,6.60
2018-12-26T03:36:59.568Z,6.70
2018-12-26T03:39:28.889Z,6.70
2018-12-26T03:41:58.468Z,6.70
2018-12-26T03:44:28.410Z,6.60
2018-12-26T03:46:57.654Z,6.50
2018-12-26T03:49:26.836Z,6.50
2018-12-26T03:51:56.031Z,6.40
2018-12-26T03:54:25.209Z,6.30
2018-12-26T03:56:55.761Z,6.30
2018-12-26T03:59:24.944Z,6.20
2018-12-26T04:01:54.099Z,6.20
2018-12-26T04:04:23.260Z,6.20
2018-12-26T04:06:52.456Z,6.20
2018-12-26T04:09:21.732Z,6.20
2018-12-26T04:11:51.064Z,6.30
2018-12-26T04:14:20.417Z,6.30
2018-12-26T04:16:49.599Z,6.30
2018-12-26T04:19:18.823Z,6.30
2018-12-26T04:21:48.007Z,6.30
2018-12-26T04:24:17.309Z,6.30
2018-12-26T04:26:46.476Z,6.30
2018-12-26T04:29:15.637Z,6.40
2018-12-26T04:31:44.776Z,6.60
2018-12-26T04:34:13.963Z,6.60
2018-12-26T04:36:43.123Z,6.50
2018-12-26T04:39:12.294Z,6.50
2018-12-26T04:41:41.458Z,6.30
2018-12-26T04:44:10.713Z,6.30
2018-12-26T04:46:39.878Z,6.30
2018-12-26T04:49:09.044Z,6.20
2018-12-26T04:51:38.241Z,6.10
2018-12-26T04:54:07.488Z,6.20
2018-12-26T04:56:36.679Z,6.30
2018-12-26T04:59:05.863Z,6.40
2018-12-26T05:01:35.060Z,6.50
2018-12-26T05:04:04.249Z,6.50
2018-12-26T05:06:33.413Z,6.40
2018-12-26T05:09:02.683Z,6.40
2018-12-26T05:11:31.862Z,6.40
2018-12-26T05:14:01.034Z,6.40
2018-12-26T05:16:30.233Z,6.40
2018-12-26T05:18:59.378Z,6.40
2018-12-26T05:21:28.580Z,6.40
2018-12-26T05:23:57.719Z,6.40
2018-12-26T05:26:27.051Z,6.40
2018-12-26T05:28:56.217Z,6.40
2018-12-26T05:31:25.390Z,6.50
2018-12-26T05:33:54.539Z,6.50
2018-12-26T05:36:23.851Z,6.30
2018-12-26T05:38:53.100Z,6.30
2018-12-26T05:41:22.251Z,6.30
2018-12-26T05:43:51.447Z,6.30
2018-12-26T05:46:20.609Z,6.40
2018-12-26T05:48:49.804Z,6.40
2018-12-26T05:51:19.040Z,6.50
2018-12-26T05:53:48.201Z,6.50
2018-12-26T05:56:17.471Z,6.50
2018-12-26T05:58:46.640Z,6.40
2018-12-26T06:01:15.810Z,6.30
2018-12-26T06:03:44.972Z,6.30
2018-12-26T06:06:14.132Z,6.30
2018-12-26T06:08:43.369Z,6.40
2018-12-26T06:11:12.543Z,6.30
2018-12-26T06:13:41.731Z,6.30
2018-12-26T06:16:11.088Z,6.30
2018-12-26T06:18:40.436Z,6.20
2018-12-26T06:21:09.680Z,6.10
2018-12-26T06:23:38.857Z,6.10
2018-12-26T06:26:08.012Z,6.20
2018-12-26T06:28:37.302Z,6.10
2018-12-26T06:31:06.455Z,6.00
2018-12-26T06:33:35.607Z,6.10
2018-12-26T06:36:04.800Z,6.10
2018-12-26T06:38:33.972Z,6.10
2018-12-26T06:41:03.132Z,6.10
2018-12-26T06:43:32.312Z,6.10
2018-12-26T06:46:01.486Z,6.10
2018-12-26T06:48:30.666Z,6.10
2018-12-26T06:50:59.823Z,6.10
2018-12-26T06:53:29.005Z,6.10
2018-12-26T06:55:58.169Z,6.10
2018-12-26T06:58:27.311Z,6.20
2018-12-26T07:00:56.516Z,6.20
2018-12-26T07:03:26.145Z,6.20
2018-12-26T07:05:55.453Z,6.20
2018-12-26T07:08:24.674Z,6.30
2018-12-26T07:10:53.851Z,6.40
2018-12-26T07:13:23.120Z,6.30
2018-12-26T07:15:52.284Z,6.30
2018-12-26T07:18:21.442Z,6.30
2018-12-26T07:20:50.617Z,6.40
2018-12-26T07:23:19.816Z,6.30
2018-12-26T07:25:49.058Z,6.40
2018-12-26T07:28:18.256Z,6.30
2018-12-26T07:30:47.439Z,6.30
2018-12-26T07:33:16.605Z,6.40
2018-12-26T07:35:45.800Z,6.40
2018-12-26T07:38:14.958Z,6.50
2018-12-26T07:40:44.212Z,6.60
2018-12-26T07:43:13.488Z,6.60
2018-12-26T07:45:42.744Z,6.50
2018-12-26T07:48:12.000Z,6.30
2018-12-26T07:50:41.157Z,6.20
2018-12-26T07:53:10.338Z,6.40
2018-12-26T07:55:39.532Z,6.40
2018-12-26T07:58:17.381Z,6.40
2018-12-26T08:00:39.777Z,6.40
2018-12-26T08:03:08.948Z,6.30
2018-12-26T08:05:38.148Z,6.40
2018-12-26T08:08:07.332Z,6.40
2018-12-26T08:10:36.503Z,6.40
2018-12-26T08:13:05.719Z,6.40
2018-12-26T08:15:34.944Z,6.50
2018-12-26T08:18:04.127Z,6.40
2018-12-26T08:20:33.308Z,6.50
2018-12-26T08:23:02.465Z,6.50
2018-12-26T08:25:31.656Z,6.50
2018-12-26T08:28:00.810Z,6.60
2018-12-26T08:30:29.979Z,6.50
2018-12-26T08:32:59.148Z,6.60
2018-12-26T08:35:28.335Z,6.50
2018-12-26T08:37:57.513Z,6.50
2018-12-26T08:40:26.658Z,6.40
2018-12-26T08:42:55.859Z,6.30
2018-12-26T08:45:25.037Z,6.40
2018-12-26T08:47:54.215Z,6.60
2018-12-26T08:50:23.392Z,6.60
2018-12-26T08:52:52.592Z,6.70
2018-12-26T08:55:21.763Z,6.70
2018-12-26T08:57:50.942Z,6.80
2018-12-26T09:00:20.136Z,6.60
2018-12-26T09:02:49.422Z,6.70
2018-12-26T09:05:18.698Z,6.70
2018-12-26T09:07:47.867Z,6.70
2018-12-26T09:10:17.058Z,6.70
2018-12-26T09:12:46.307Z,6.60
2018-12-26T09:15:15.463Z,6.80
2018-12-26T09:17:44.661Z,6.70
2018-12-26T09:20:13.845Z,6.60
2018-12-26T09:22:43.064Z,6.60
2018-12-26T09:25:12.252Z,6.70
2018-12-26T09:27:41.688Z,6.70
2018-12-26T09:30:11.512Z,6.70
2018-12-26T09:32:40.720Z,6.80
2018-12-26T09:35:10.412Z,6.90
2018-12-26T09:37:39.594Z,6.90
2018-12-26T09:40:09.000Z,6.80
2018-12-26T09:42:38.171Z,6.70
2018-12-26T09:45:08.101Z,6.70
2018-12-26T09:47:37.332Z,6.70
2018-12-26T09:50:06.746Z,6.80
2018-12-26T09:52:35.996Z,6.70
2018-12-26T09:55:05.611Z,6.80
2018-12-26T09:57:34.818Z,6.80
2018-12-26T10:00:04.011Z,6.80
2018-12-26T10:02:33.196Z,6.70
2018-12-26T10:05:02.425Z,6.90
2018-12-26T10:10:00.261Z,7.00
2018-12-26T10:12:29.441Z,7.00
2018-12-26T10:14:58.623Z,7.00
2018-12-26T10:17:27.795Z,7.10
2018-12-26T10:19:56.975Z,7.20
2018-12-26T10:22:26.141Z,7.20
2018-12-26T10:24:55.356Z,7.20
2018-12-26T10:27:24.608Z,7.10
2018-12-26T10:29:53.782Z,7.00
2018-12-26T10:32:22.945Z,7.00
2018-12-26T10:34:52.153Z,6.80
2018-12-26T10:37:21.388Z,6.90
2018-12-26T10:39:50.554Z,7.10
2018-12-26T10:42:20.016Z,7.10
2018-12-26T10:44:49.170Z,7.10
2018-12-26T10:47:18.352Z,7.10
2018-12-26T10:49:47.573Z,7.00
2018-12-26T10:52:16.724Z,7.10
2018-12-26T10:54:45.933Z,7.10
2018-12-26T10:57:15.104Z,7.00
2018-12-26T10:59:44.280Z,6.80
2018-12-26T11:02:13.465Z,6.70
2018-12-26T11:04:42.615Z,6.80
2018-12-26T11:07:11.782Z,6.80
2018-12-26T11:09:41.116Z,6.80
2018-12-26T11:12:10.315Z,6.90
2018-12-26T11:14:39.640Z,6.90
2018-12-26T11:17:08.849Z,7.00
2018-12-26T11:19:38.164Z,6.90
2018-12-26T11:22:07.352Z,6.80
2018-12-26T11:24:36.536Z,6.80
2018-12-26T11:27:05.814Z,6.90
2018-12-26T11:29:35.002Z,6.80
2018-12-26T11:32:04.427Z,6.90
2018-12-26T11:34:33.675Z,6.70
2018-12-26T11:37:02.939Z,6.80
2018-12-26T11:39:32.130Z,6.80
2018-12-26T11:42:01.380Z,6.80
2018-12-26T11:44:30.607Z,6.70
2018-12-26T11:46:59.810Z,6.80
2018-12-26T11:49:29.004Z,6.70
2018-12-26T11:51:58.289Z,6.80
2018-12-26T11:54:27.549Z,6.80
2018-12-26T11:56:56.762Z,6.80
2018-12-26T11:59:27.355Z,6.90
2018-12-26T12:01:56.929Z,6.90
2018-12-26T12:04:26.107Z,6.80
2018-12-26T12:06:55.299Z,6.80
2018-12-26T12:09:24.503Z,6.80
2018-12-26T12:11:53.782Z,6.80
2018-12-26T12:14:22.987Z,6.90
2018-12-26T12:16:52.158Z,6.80
2018-12-26T12:19:21.363Z,6.90
2018-12-26T12:21:50.551Z,6.90
2018-12-26T12:24:19.758Z,7.00
2018-12-26T12:26:48.949Z,7.10
2018-12-26T12:29:18.175Z,7.00
2018-12-26T12:31:47.401Z,7.00
2018-12-26T12:34:16.616Z,7.10
2018-12-26T12:36:45.800Z,7.10
2018-12-26T12:39:15.073Z,7.20
2018-12-26T12:41:44.341Z,7.20
2018-12-26T12:44:13.644Z,7.20
2018-12-26T12:46:42.847Z,7.20
2018-12-26T12:49:12.044Z,7.40
2018-12-26T12:51:41.313Z,7.30
2018-12-26T12:54:10.651Z,7.40
2018-12-26T12:56:39.944Z,7.50
2018-12-26T12:59:09.140Z,7.40
2018-12-26T13:01:38.374Z,7.50
2018-12-26T13:04:07.527Z,7.50
2018-12-26T13:06:36.773Z,7.30
2018-12-26T13:09:07.605Z,7.30
2018-12-26T13:11:36.775Z,7.30
2018-12-26T13:14:05.977Z,7.30
2018-12-26T13:16:35.171Z,7.40
2018-12-26T13:19:04.422Z,7.50
2018-12-26T13:21:33.588Z,7.60
2018-12-26T13:24:02.775Z,7.60
2018-12-26T13:26:31.969Z,7.70
2018-12-26T13:29:01.220Z,7.70
2018-12-26T13:31:30.522Z,7.80
2018-12-26T13:33:59.847Z,7.70
2018-12-26T13:36:29.112Z,7.80
2018-12-26T13:38:58.277Z,7.80
2018-12-26T13:41:27.479Z,7.90
2018-12-26T13:43:56.760Z,7.90
2018-12-26T13:46:33.543Z,7.90
2018-12-26T13:48:56.865Z,7.90
2018-12-26T13:51:26.051Z,7.80
2018-12-26T13:53:55.253Z,7.80
2018-12-26T13:56:24.554Z,7.70
2018-12-26T13:58:53.754Z,7.70
2018-12-26T14:01:22.996Z,7.70
2018-12-26T14:03:52.198Z,7.70
2018-12-26T14:06:21.372Z,7.70
2018-12-26T14:08:50.592Z,7.60
2018-12-26T14:11:19.767Z,7.70
2018-12-26T14:13:48.931Z,7.70
2018-12-26T14:16:18.192Z,7.80
2018-12-26T14:18:47.380Z,7.70
2018-12-26T14:21:16.619Z,7.70
2018-12-26T14:23:45.771Z,7.70
2018-12-26T14:26:14.977Z,7.60
2018-12-26T14:28:44.167Z,7.70
2018-12-26T14:31:13.360Z,7.80
2018-12-26T14:33:42.530Z,7.70
2018-12-26T14:36:11.723Z,7.80
2018-12-26T14:38:40.935Z,7.70
2018-12-26T14:41:10.232Z,7.70
2018-12-26T14:43:39.428Z,7.40
2018-12-26T14:46:08.627Z,7.40
2018-12-26T14:48:37.844Z,7.40
2018-12-26T14:51:07.016Z,7.30
2018-12-26T14:53:36.279Z,7.30
2018-12-26T14:56:05.459Z,7.20
2018-12-26T14:58:34.711Z,7.40
2018-12-26T15:01:03.947Z,7.40
2018-12-26T15:03:33.398Z,7.40
2018-12-26T15:06:02.687Z,7.60
2018-12-26T15:08:31.843Z,7.60
2018-12-26T15:11:01.231Z,7.60
2018-12-26T15:13:30.573Z,7.60
2018-12-26T15:15:59.823Z,7.50
2018-12-26T15:18:29.018Z,7.40
2018-12-26T15:20:58.227Z,7.10
2018-12-26T15:23:27.409Z,7.10
2018-12-26T15:25:56.676Z,6.90
2018-12-26T15:28:25.895Z,6.80
2018-12-26T15:30:55.145Z,6.70
2018-12-26T15:33:24.343Z,6.50
2018-12-26T15:35:53.551Z,6.60
2018-12-26T15:38:22.707Z,6.70
2018-12-26T15:40:51.910Z,6.70
2018-12-26T15:43:21.139Z,6.50
2018-12-26T15:45:50.351Z,6.50
2018-12-26T15:48:19.603Z,6.70
2018-12-26T15:50:48.804Z,6.70
2018-12-26T15:53:18.061Z,6.60
2018-12-26T15:55:47.325Z,6.70
2018-12-26T15:58:16.506Z,6.80
2018-12-26T16:00:45.775Z,6.60
2018-12-26T16:03:15.067Z,6.40
2018-12-26T16:05:44.323Z,6.30
2018-12-26T16:08:13.612Z,6.30
2018-12-26T16:10:42.959Z,6.30
2018-12-26T16:13:12.333Z,6.30
2018-12-26T16:15:41.779Z,6.10
2018-12-26T16:18:11.222Z,6.10
2018-12-26T16:20:40.495Z,6.20
2018-12-26T16:23:09.681Z,6.40
2018-12-26T16:25:38.972Z,6.40
2018-12-26T16:28:08.144Z,6.30
2018-12-26T16:30:45.927Z,6.30
2018-12-26T16:33:08.328Z,6.30
2018-12-26T16:35:37.585Z,6.30
2018-12-26T16:38:06.763Z,6.30
2018-12-26T16:40:36.004Z,6.30
2018-12-26T16:43:05.346Z,6.20
2018-12-26T16:45:34.608Z,6.20
2018-12-26T16:48:03.896Z,6.10
2018-12-26T16:50:33.139Z,6.30
2018-12-26T16:53:02.435Z,6.30
2018-12-26T16:55:31.676Z,6.40
2018-12-26T16:58:00.886Z,6.20
2018-12-26T17:00:30.140Z,6.10
2018-12-26T17:02:59.365Z,6.00
2018-12-26T17:05:28.650Z,6.00
2018-12-26T17:07:57.913Z,6.20
2018-12-26T17:10:27.214Z,6.30
2018-12-26T17:12:56.401Z,6.30
2018-12-26T17:15:25.774Z,6.50
2018-12-26T17:17:54.971Z,6.40
2018-12-26T17:20:24.228Z,6.40
2018-12-26T17:22:53.518Z,6.40
2018-12-26T17:25:22.812Z,6.40
2018-12-26T17:27:52.099Z,6.50
2018-12-26T17:30:21.303Z,6.50
2018-12-26T17:32:50.588Z,6.30
2018-12-26T17:35:19.873Z,6.40
2018-12-26T17:37:49.036Z,6.40
2018-12-26T17:40:18.216Z,6.20
2018-12-26T17:42:47.433Z,6.00
2018-12-26T17:45:23.522Z,6.20
2018-12-26T17:47:52.796Z,6.30
2018-12-26T17:50:46.203Z,6.20
2018-12-26T17:53:47.282Z,6.10
2018-12-26T17:56:34.319Z,6.10
2018-12-26T17:59:25.101Z,6.20
2018-12-26T18:02:08.602Z,6.10
2018-12-26T18:04:37.887Z,6.00
2018-12-26T18:07:08.224Z,6.00
2018-12-26T18:09:37.447Z,6.10
2018-12-26T18:12:11.837Z,6.20
2018-12-26T18:14:37.912Z,6.30
2018-12-26T18:17:07.093Z,6.10
2018-12-26T18:19:36.720Z,6.20
2018-12-26T18:22:06.075Z,6.20
2018-12-26T18:24:35.300Z,6.30
2018-12-26T18:27:04.524Z,6.20
2018-12-26T18:29:33.787Z,6.40
2018-12-26T18:32:03.131Z,6.20
2018-12-26T18:34:32.468Z,6.30
2018-12-26T18:37:01.728Z,6.30
2018-12-26T18:39:31.931Z,6.40
2018-12-26T18:42:01.120Z,6.20
2018-12-26T18:44:30.400Z,6.30
2018-12-26T18:46:59.700Z,6.10
2018-12-26T18:49:29.099Z,6.20
2018-12-26T18:51:58.371Z,6.20
2018-12-26T18:54:27.832Z,6.20
2018-12-26T18:56:57.244Z,6.00
2018-12-26T18:59:26.539Z,6.10
2018-12-26T19:01:55.740Z,6.10
2018-12-26T19:04:25.042Z,6.00
2018-12-26T19:06:54.223Z,6.10
2018-12-26T19:09:23.506Z,6.10
2018-12-26T19:11:52.713Z,6.10
2018-12-26T19:14:21.903Z,6.00
2018-12-26T19:16:51.105Z,6.00
2018-12-26T19:19:20.312Z,5.70
2018-12-26T19:21:49.537Z,5.90
2018-12-26T19:24:18.776Z,6.00
2018-12-26T19:26:47.961Z,6.10
2018-12-26T19:29:17.262Z,6.10
2018-12-26T19:31:46.533Z,6.10
2018-12-26T19:34:15.743Z,6.10
2018-12-26T19:36:45.005Z,6.20
2018-12-26T19:39:14.199Z,6.10
2018-12-26T19:41:43.464Z,6.10
2018-12-26T19:44:12.720Z,6.30
2018-12-26T19:46:41.963Z,6.10
